sensor_id;sensor_type;location;lat;lon;timestamp;P1;durP1;ratioP1;P2;durP2;ratioP2
16262;SDS011;8239;48.594;8.598;2023-05-18T00:00:04;10.80;;;6.27;;
16262;SDS011;8239;48.594;8.598;2023-05-18T00:02:35;10.63;;;6.30;;
16262;SDS011;8239;48.594;8.598;2023-05-18T00:05:04;10.50;;;5.90;;
16262;SDS011;8239;48.594;8.598;2023-05-18T00:07:32;8.13;;;5.67;;
16262;SDS011;8239;48.594;8.598;2023-05-18T00:09:59;8.37;;;5.37;;
16262;SDS011;8239;48.594;8.598;2023-05-18T00:12:26;12.77;;;5.87;;
16262;SDS011;8239;48.594;8.598;2023-05-18T00:14:54;9.73;;;5.97;;
16262;SDS011;8239;48.594;8.598;2023-05-18T00:17:21;11.13;;;6.03;;
16262;SDS011;8239;48.594;8.598;2023-05-18T00:19:48;13.93;;;6.23;;
16262;SDS011;8239;48.594;8.598;2023-05-18T00:22:17;14.43;;;6.07;;
16262;SDS011;8239;48.594;8.598;2023-05-18T00:24:44;11.00;;;6.50;;
16262;SDS011;8239;48.594;8.598;2023-05-18T00:27:11;12.30;;;6.43;;
16262;SDS011;8239;48.594;8.598;2023-05-18T00:29:38;11.20;;;6.80;;
16262;SDS011;8239;48.594;8.598;2023-05-18T00:32:05;9.03;;;5.90;;
16262;SDS011;8239;48.594;8.598;2023-05-18T00:34:32;13.87;;;6.20;;
16262;SDS011;8239;48.594;8.598;2023-05-18T00:37:00;12.27;;;6.07;;
16262;SDS011;8239;48.594;8.598;2023-05-18T00:39:28;11.33;;;5.93;;
16262;SDS011;8239;48.594;8.598;2023-05-18T00:41:55;10.87;;;5.47;;
16262;SDS011;8239;48.594;8.598;2023-05-18T00:44:22;9.40;;;5.30;;
16262;SDS011;8239;48.594;8.598;2023-05-18T00:46:49;8.10;;;5.40;;
16262;SDS011;8239;48.594;8.598;2023-05-18T00:49:16;12.87;;;5.90;;
16262;SDS011;8239;48.594;8.598;2023-05-18T00:51:44;12.77;;;6.13;;
16262;SDS011;8239;48.594;8.598;2023-05-18T00:54:11;9.30;;;5.57;;
16262;SDS011;8239;48.594;8.598;2023-05-18T00:56:40;12.53;;;5.77;;
16262;SDS011;8239;48.594;8.598;2023-05-18T00:59:10;11.43;;;6.00;;
16262;SDS011;8239;48.594;8.598;2023-05-18T01:01:37;11.17;;;5.77;;
16262;SDS011;8239;48.594;8.598;2023-05-18T01:04:07;11.13;;;5.77;;
16262;SDS011;8239;48.594;8.598;2023-05-18T01:06:38;11.47;;;5.73;;
16262;SDS011;8239;48.594;8.598;2023-05-18T01:09:06;8.23;;;5.60;;
16262;SDS011;8239;48.594;8.598;2023-05-18T01:11:39;9.93;;;5.53;;
16262;SDS011;8239;48.594;8.598;2023-05-18T01:14:17;9.53;;;6.10;;
16262;SDS011;8239;48.594;8.598;2023-05-18T01:16:53;11.50;;;7.33;;
16262;SDS011;8239;48.594;8.598;2023-05-18T01:22:44;10.93;;;6.17;;
16262;SDS011;8239;48.594;8.598;2023-05-18T01:25:24;12.53;;;5.97;;
16262;SDS011;8239;48.594;8.598;2023-05-18T01:28:00;10.30;;;5.93;;
16262;SDS011;8239;48.594;8.598;2023-05-18T01:30:32;8.80;;;5.67;;
16262;SDS011;8239;48.594;8.598;2023-05-18T01:32:59;8.17;;;5.53;;
16262;SDS011;8239;48.594;8.598;2023-05-18T01:35:26;11.70;;;5.70;;
16262;SDS011;8239;48.594;8.598;2023-05-18T01:37:53;10.37;;;5.70;;
16262;SDS011;8239;48.594;8.598;2023-05-18T01:40:20;9.00;;;5.23;;
16262;SDS011;8239;48.594;8.598;2023-05-18T01:42:49;11.40;;;5.63;;
16262;SDS011;8239;48.594;8.598;2023-05-18T01:45:24;10.03;;;5.83;;
16262;SDS011;8239;48.594;8.598;2023-05-18T01:47:55;11.63;;;5.90;;
16262;SDS011;8239;48.594;8.598;2023-05-18T01:50:26;9.33;;;5.70;;
16262;SDS011;8239;48.594;8.598;2023-05-18T01:53:03;9.20;;;5.60;;
16262;SDS011;8239;48.594;8.598;2023-05-18T01:55:33;8.93;;;5.33;;
16262;SDS011;8239;48.594;8.598;2023-05-18T01:58:03;12.30;;;6.17;;
16262;SDS011;8239;48.594;8.598;2023-05-18T02:00:34;10.53;;;5.70;;
16262;SDS011;8239;48.594;8.598;2023-05-18T02:03:02;10.37;;;5.90;;
16262;SDS011;8239;48.594;8.598;2023-05-18T02:05:29;8.73;;;5.37;;
16262;SDS011;8239;48.594;8.598;2023-05-18T02:07:56;9.20;;;5.67;;
16262;SDS011;8239;48.594;8.598;2023-05-18T02:10:23;9.63;;;5.53;;
16262;SDS011;8239;48.594;8.598;2023-05-18T02:12:50;10.33;;;5.57;;
16262;SDS011;8239;48.594;8.598;2023-05-18T02:15:17;9.03;;;5.30;;
16262;SDS011;8239;48.594;8.598;2023-05-18T02:17:46;8.63;;;5.50;;
16262;SDS011;8239;48.594;8.598;2023-05-18T02:20:13;8.23;;;5.63;;
16262;SDS011;8239;48.594;8.598;2023-05-18T02:22:42;10.10;;;5.87;;
16262;SDS011;8239;48.594;8.598;2023-05-18T02:25:10;9.10;;;6.00;;
16262;SDS011;8239;48.594;8.598;2023-05-18T02:27:37;10.33;;;5.67;;
16262;SDS011;8239;48.594;8.598;2023-05-18T02:30:05;9.90;;;5.90;;
16262;SDS011;8239;48.594;8.598;2023-05-18T02:32:33;9.77;;;5.47;;
16262;SDS011;8239;48.594;8.598;2023-05-18T02:35:04;10.80;;;5.67;;
16262;SDS011;8239;48.594;8.598;2023-05-18T02:37:31;7.03;;;5.10;;
16262;SDS011;8239;48.594;8.598;2023-05-18T02:40:04;9.20;;;5.63;;
16262;SDS011;8239;48.594;8.598;2023-05-18T02:42:32;10.77;;;5.53;;
16262;SDS011;8239;48.594;8.598;2023-05-18T02:44:59;9.90;;;5.83;;
16262;SDS011;8239;48.594;8.598;2023-05-18T02:47:26;10.30;;;5.13;;
16262;SDS011;8239;48.594;8.598;2023-05-18T02:49:53;8.83;;;5.50;;
16262;SDS011;8239;48.594;8.598;2023-05-18T02:52:21;9.67;;;5.50;;
16262;SDS011;8239;48.594;8.598;2023-05-18T02:54:48;10.27;;;5.67;;
16262;SDS011;8239;48.594;8.598;2023-05-18T02:57:19;10.97;;;6.13;;
16262;SDS011;8239;48.594;8.598;2023-05-18T02:59:46;9.10;;;5.17;;
16262;SDS011;8239;48.594;8.598;2023-05-18T03:02:13;10.20;;;5.40;;
16262;SDS011;8239;48.594;8.598;2023-05-18T03:04:40;9.07;;;5.60;;
16262;SDS011;8239;48.594;8.598;2023-05-18T03:07:07;11.70;;;5.33;;
16262;SDS011;8239;48.594;8.598;2023-05-18T03:09:36;10.33;;;5.73;;
16262;SDS011;8239;48.594;8.598;2023-05-18T03:12:03;8.17;;;5.30;;
16262;SDS011;8239;48.594;8.598;2023-05-18T03:14:30;9.87;;;5.10;;
16262;SDS011;8239;48.594;8.598;2023-05-18T03:16:57;10.10;;;5.70;;
16262;SDS011;8239;48.594;8.598;2023-05-18T03:19:25;10.33;;;5.50;;
16262;SDS011;8239;48.594;8.598;2023-05-18T03:21:52;12.27;;;5.97;;
16262;SDS011;8239;48.594;8.598;2023-05-18T03:24:19;11.23;;;5.70;;
16262;SDS011;8239;48.594;8.598;2023-05-18T03:26:48;10.70;;;5.60;;
16262;SDS011;8239;48.594;8.598;2023-05-18T03:29:18;7.20;;;4.87;;
16262;SDS011;8239;48.594;8.598;2023-05-18T03:31:45;8.47;;;5.30;;
16262;SDS011;8239;48.594;8.598;2023-05-18T03:34:12;11.00;;;5.23;;
16262;SDS011;8239;48.594;8.598;2023-05-18T03:36:39;10.17;;;5.57;;
16262;SDS011;8239;48.594;8.598;2023-05-18T03:39:11;10.17;;;5.20;;
16262;SDS011;8239;48.594;8.598;2023-05-18T03:41:38;9.50;;;5.50;;
16262;SDS011;8239;48.594;8.598;2023-05-18T03:44:06;10.73;;;5.10;;
16262;SDS011;8239;48.594;8.598;2023-05-18T03:46:33;7.67;;;4.83;;
16262;SDS011;8239;48.594;8.598;2023-05-18T03:49:00;10.13;;;5.17;;
16262;SDS011;8239;48.594;8.598;2023-05-18T03:51:29;8.80;;;5.40;;
16262;SDS011;8239;48.594;8.598;2023-05-18T03:53:56;7.67;;;5.13;;
16262;SDS011;8239;48.594;8.598;2023-05-18T03:56:22;11.30;;;5.43;;
16262;SDS011;8239;48.594;8.598;2023-05-18T03:58:50;9.93;;;5.90;;
16262;SDS011;8239;48.594;8.598;2023-05-18T04:01:18;8.70;;;5.30;;
16262;SDS011;8239;48.594;8.598;2023-05-18T04:03:49;8.60;;;5.77;;
16262;SDS011;8239;48.594;8.598;2023-05-18T04:06:20;9.17;;;5.80;;
16262;SDS011;8239;48.594;8.598;2023-05-18T04:08:47;8.57;;;5.37;;
16262;SDS011;8239;48.594;8.598;2023-05-18T04:11:14;9.83;;;5.40;;
16262;SDS011;8239;48.594;8.598;2023-05-18T04:13:41;9.80;;;5.37;;
16262;SDS011;8239;48.594;8.598;2023-05-18T04:16:08;11.90;;;5.67;;
16262;SDS011;8239;48.594;8.598;2023-05-18T04:18:39;8.33;;;5.57;;
16262;SDS011;8239;48.594;8.598;2023-05-18T04:21:07;10.07;;;5.40;;
16262;SDS011;8239;48.594;8.598;2023-05-18T04:23:34;9.10;;;5.50;;
16262;SDS011;8239;48.594;8.598;2023-05-18T04:26:03;10.13;;;5.87;;
16262;SDS011;8239;48.594;8.598;2023-05-18T04:28:31;9.00;;;5.50;;
16262;SDS011;8239;48.594;8.598;2023-05-18T04:30:58;9.77;;;5.63;;
16262;SDS011;8239;48.594;8.598;2023-05-18T04:33:25;8.90;;;5.67;;
16262;SDS011;8239;48.594;8.598;2023-05-18T04:35:54;11.00;;;5.53;;
16262;SDS011;8239;48.594;8.598;2023-05-18T04:38:23;6.80;;;4.90;;
16262;SDS011;8239;48.594;8.598;2023-05-18T04:40:50;6.97;;;5.10;;
16262;SDS011;8239;48.594;8.598;2023-05-18T04:43:17;10.03;;;5.73;;
16262;SDS011;8239;48.594;8.598;2023-05-18T04:45:45;10.83;;;5.67;;
16262;SDS011;8239;48.594;8.598;2023-05-18T04:48:14;8.70;;;5.37;;
16262;SDS011;8239;48.594;8.598;2023-05-18T04:50:43;10.13;;;5.27;;
16262;SDS011;8239;48.594;8.598;2023-05-18T04:53:12;7.77;;;5.13;;
16262;SDS011;8239;48.594;8.598;2023-05-18T04:55:42;9.30;;;5.53;;
16262;SDS011;8239;48.594;8.598;2023-05-18T04:58:10;8.10;;;5.20;;
16262;SDS011;8239;48.594;8.598;2023-05-18T05:00:37;9.27;;;5.73;;
16262;SDS011;8239;48.594;8.598;2023-05-18T05:03:04;9.43;;;5.50;;
16262;SDS011;8239;48.594;8.598;2023-05-18T05:05:31;8.97;;;5.60;;
16262;SDS011;8239;48.594;8.598;2023-05-18T05:07:59;8.23;;;5.43;;
16262;SDS011;8239;48.594;8.598;2023-05-18T05:10:30;9.57;;;5.60;;
16262;SDS011;8239;48.594;8.598;2023-05-18T05:12:57;7.37;;;5.00;;
16262;SDS011;8239;48.594;8.598;2023-05-18T05:15:24;8.57;;;5.70;;
16262;SDS011;8239;48.594;8.598;2023-05-18T05:17:51;8.20;;;5.50;;
16262;SDS011;8239;48.594;8.598;2023-05-18T05:20:18;7.47;;;5.87;;
16262;SDS011;8239;48.594;8.598;2023-05-18T05:22:45;7.43;;;5.40;;
16262;SDS011;8239;48.594;8.598;2023-05-18T05:25:14;13.40;;;6.80;;
16262;SDS011;8239;48.594;8.598;2023-05-18T05:27:43;10.20;;;5.90;;
16262;SDS011;8239;48.594;8.598;2023-05-18T05:30:10;10.43;;;6.30;;
16262;SDS011;8239;48.594;8.598;2023-05-18T05:32:37;11.77;;;6.63;;
16262;SDS011;8239;48.594;8.598;2023-05-18T05:35:05;10.90;;;6.17;;
16262;SDS011;8239;48.594;8.598;2023-05-18T05:37:33;11.40;;;5.93;;
16262;SDS011;8239;48.594;8.598;2023-05-18T05:40:00;7.40;;;5.50;;
16262;SDS011;8239;48.594;8.598;2023-05-18T05:42:27;10.20;;;5.50;;
16262;SDS011;8239;48.594;8.598;2023-05-18T05:44:56;10.53;;;5.30;;
16262;SDS011;8239;48.594;8.598;2023-05-18T05:47:22;10.40;;;5.80;;
16262;SDS011;8239;48.594;8.598;2023-05-18T05:49:49;10.67;;;5.43;;
16262;SDS011;8239;48.594;8.598;2023-05-18T05:52:16;12.47;;;5.07;;
16262;SDS011;8239;48.594;8.598;2023-05-18T05:54:43;10.40;;;4.63;;
16262;SDS011;8239;48.594;8.598;2023-05-18T05:57:10;11.03;;;4.77;;
16262;SDS011;8239;48.594;8.598;2023-05-18T05:59:40;7.97;;;3.97;;
16262;SDS011;8239;48.594;8.598;2023-05-18T06:02:08;8.83;;;4.10;;
16262;SDS011;8239;48.594;8.598;2023-05-18T06:04:36;9.90;;;4.20;;
16262;SDS011;8239;48.594;8.598;2023-05-18T06:07:03;9.13;;;3.90;;
16262;SDS011;8239;48.594;8.598;2023-05-18T06:09:30;7.60;;;3.87;;
16262;SDS011;8239;48.594;8.598;2023-05-18T06:11:57;7.03;;;3.67;;
16262;SDS011;8239;48.594;8.598;2023-05-18T06:14:24;6.97;;;3.40;;
16262;SDS011;8239;48.594;8.598;2023-05-18T06:16:52;6.00;;;3.73;;
16262;SDS011;8239;48.594;8.598;2023-05-18T06:19:20;6.37;;;3.17;;
16262;SDS011;8239;48.594;8.598;2023-05-18T06:21:47;6.33;;;3.27;;
16262;SDS011;8239;48.594;8.598;2023-05-18T06:24:14;6.97;;;3.03;;
16262;SDS011;8239;48.594;8.598;2023-05-18T06:26:41;6.93;;;3.30;;
16262;SDS011;8239;48.594;8.598;2023-05-18T06:29:09;5.63;;;3.20;;
16262;SDS011;8239;48.594;8.598;2023-05-18T06:31:36;5.13;;;2.93;;
16262;SDS011;8239;48.594;8.598;2023-05-18T06:34:03;6.77;;;2.90;;
16262;SDS011;8239;48.594;8.598;2023-05-18T06:36:34;7.37;;;3.43;;
16262;SDS011;8239;48.594;8.598;2023-05-18T06:39:02;6.37;;;3.10;;
16262;SDS011;8239;48.594;8.598;2023-05-18T06:41:29;5.33;;;2.90;;
16262;SDS011;8239;48.594;8.598;2023-05-18T06:43:56;5.30;;;2.73;;
16262;SDS011;8239;48.594;8.598;2023-05-18T06:46:25;6.07;;;2.63;;
16262;SDS011;8239;48.594;8.598;2023-05-18T06:48:53;5.75;;;2.80;;
16262;SDS011;8239;48.594;8.598;2023-05-18T06:51:20;4.20;;;2.67;;
16262;SDS011;8239;48.594;8.598;2023-05-18T06:53:49;5.95;;;2.97;;
16262;SDS011;8239;48.594;8.598;2023-05-18T06:56:16;6.68;;;2.95;;
16262;SDS011;8239;48.594;8.598;2023-05-18T06:58:45;5.25;;;2.78;;
16262;SDS011;8239;48.594;8.598;2023-05-18T07:01:12;4.75;;;2.95;;
16262;SDS011;8239;48.594;8.598;2023-05-18T07:03:39;6.43;;;3.00;;
16262;SDS011;8239;48.594;8.598;2023-05-18T07:06:07;4.32;;;2.67;;
16262;SDS011;8239;48.594;8.598;2023-05-18T07:08:34;5.35;;;2.97;;
16262;SDS011;8239;48.594;8.598;2023-05-18T07:11:02;4.93;;;3.05;;
16262;SDS011;8239;48.594;8.598;2023-05-18T07:13:29;4.43;;;3.03;;
16262;SDS011;8239;48.594;8.598;2023-05-18T07:15:57;4.07;;;2.88;;
16262;SDS011;8239;48.594;8.598;2023-05-18T07:18:24;5.28;;;2.83;;
16262;SDS011;8239;48.594;8.598;2023-05-18T07:20:51;4.47;;;2.90;;
16262;SDS011;8239;48.594;8.598;2023-05-18T07:23:18;5.45;;;3.35;;
16262;SDS011;8239;48.594;8.598;2023-05-18T07:25:46;5.43;;;2.88;;
16262;SDS011;8239;48.594;8.598;2023-05-18T07:28:14;5.82;;;3.20;;
16262;SDS011;8239;48.594;8.598;2023-05-18T07:30:41;7.15;;;2.88;;
16262;SDS011;8239;48.594;8.598;2023-05-18T07:33:08;5.18;;;3.53;;
16262;SDS011;8239;48.594;8.598;2023-05-18T07:35:35;6.35;;;3.55;;
16262;SDS011;8239;48.594;8.598;2023-05-18T07:38:02;5.20;;;3.15;;
16262;SDS011;8239;48.594;8.598;2023-05-18T07:40:29;6.32;;;3.25;;
16262;SDS011;8239;48.594;8.598;2023-05-18T07:42:56;5.47;;;3.50;;
16262;SDS011;8239;48.594;8.598;2023-05-18T07:45:25;6.68;;;3.67;;
16262;SDS011;8239;48.594;8.598;2023-05-18T07:47:52;5.68;;;3.35;;
16262;SDS011;8239;48.594;8.598;2023-05-18T07:50:19;7.10;;;3.42;;
16262;SDS011;8239;48.594;8.598;2023-05-18T07:52:46;5.65;;;3.50;;
16262;SDS011;8239;48.594;8.598;2023-05-18T07:55:13;4.97;;;3.40;;
16262;SDS011;8239;48.594;8.598;2023-05-18T07:57:40;5.45;;;3.33;;
16262;SDS011;8239;48.594;8.598;2023-05-18T08:00:07;5.57;;;3.50;;
16262;SDS011;8239;48.594;8.598;2023-05-18T08:02:37;8.55;;;4.15;;
16262;SDS011;8239;48.594;8.598;2023-05-18T08:05:04;5.88;;;3.40;;
16262;SDS011;8239;48.594;8.598;2023-05-18T08:07:32;7.57;;;3.60;;
16262;SDS011;8239;48.594;8.598;2023-05-18T08:09:59;5.50;;;3.47;;
16262;SDS011;8239;48.594;8.598;2023-05-18T08:12:26;5.93;;;3.55;;
16262;SDS011;8239;48.594;8.598;2023-05-18T08:14:54;7.75;;;3.92;;
16262;SDS011;8239;48.594;8.598;2023-05-18T08:17:21;4.55;;;3.33;;
16262;SDS011;8239;48.594;8.598;2023-05-18T08:19:49;5.65;;;3.63;;
16262;SDS011;8239;48.594;8.598;2023-05-18T08:22:17;5.93;;;3.30;;
16262;SDS011;8239;48.594;8.598;2023-05-18T08:24:45;6.55;;;3.40;;
16262;SDS011;8239;48.594;8.598;2023-05-18T08:27:12;6.35;;;3.67;;
16262;SDS011;8239;48.594;8.598;2023-05-18T08:29:39;8.10;;;4.00;;
16262;SDS011;8239;48.594;8.598;2023-05-18T08:32:06;4.88;;;3.53;;
16262;SDS011;8239;48.594;8.598;2023-05-18T08:34:33;6.35;;;3.53;;
16262;SDS011;8239;48.594;8.598;2023-05-18T08:37:02;4.28;;;3.25;;
16262;SDS011;8239;48.594;8.598;2023-05-18T08:39:29;4.60;;;3.25;;
16262;SDS011;8239;48.594;8.598;2023-05-18T08:41:59;6.25;;;3.72;;
16262;SDS011;8239;48.594;8.598;2023-05-18T08:44:29;5.60;;;3.53;;
16262;SDS011;8239;48.594;8.598;2023-05-18T08:47:00;5.47;;;3.33;;
16262;SDS011;8239;48.594;8.598;2023-05-18T08:49:32;5.82;;;3.42;;
16262;SDS011;8239;48.594;8.598;2023-05-18T08:52:02;5.20;;;3.72;;
16262;SDS011;8239;48.594;8.598;2023-05-18T08:54:30;5.13;;;3.70;;
16262;SDS011;8239;48.594;8.598;2023-05-18T08:56:58;7.13;;;3.85;;
16262;SDS011;8239;48.594;8.598;2023-05-18T08:59:27;4.25;;;3.40;;
16262;SDS011;8239;48.594;8.598;2023-05-18T09:01:57;6.30;;;3.70;;
16262;SDS011;8239;48.594;8.598;2023-05-18T09:04:24;6.07;;;3.47;;
16262;SDS011;8239;48.594;8.598;2023-05-18T09:06:52;4.82;;;3.35;;
16262;SDS011;8239;48.594;8.598;2023-05-18T09:09:21;6.63;;;3.65;;
16262;SDS011;8239;48.594;8.598;2023-05-18T09:11:50;4.63;;;3.35;;
16262;SDS011;8239;48.594;8.598;2023-05-18T09:14:18;5.40;;;3.38;;
16262;SDS011;8239;48.594;8.598;2023-05-18T09:16:49;6.22;;;3.90;;
16262;SDS011;8239;48.594;8.598;2023-05-18T09:19:17;5.55;;;3.50;;
16262;SDS011;8239;48.594;8.598;2023-05-18T09:21:44;6.30;;;3.35;;
16262;SDS011;8239;48.594;8.598;2023-05-18T09:24:11;3.85;;;3.20;;
16262;SDS011;8239;48.594;8.598;2023-05-18T09:26:40;7.68;;;3.47;;
16262;SDS011;8239;48.594;8.598;2023-05-18T09:29:14;5.30;;;3.75;;
16262;SDS011;8239;48.594;8.598;2023-05-18T09:31:43;6.10;;;3.17;;
16262;SDS011;8239;48.594;8.598;2023-05-18T09:34:10;6.43;;;3.42;;
16262;SDS011;8239;48.594;8.598;2023-05-18T09:36:37;5.78;;;3.28;;
16262;SDS011;8239;48.594;8.598;2023-05-18T09:39:06;6.88;;;3.60;;
16262;SDS011;8239;48.594;8.598;2023-05-18T09:41:36;8.07;;;3.70;;
16262;SDS011;8239;48.594;8.598;2023-05-18T09:44:06;6.25;;;3.50;;
16262;SDS011;8239;48.594;8.598;2023-05-18T09:46:34;6.35;;;3.67;;
16262;SDS011;8239;48.594;8.598;2023-05-18T09:49:02;5.88;;;3.78;;
16262;SDS011;8239;48.594;8.598;2023-05-18T09:51:30;6.10;;;3.70;;
16262;SDS011;8239;48.594;8.598;2023-05-18T09:53:59;6.20;;;3.50;;
16262;SDS011;8239;48.594;8.598;2023-05-18T09:56:29;6.50;;;3.75;;
16262;SDS011;8239;48.594;8.598;2023-05-18T09:59:07;6.50;;;3.88;;
16262;SDS011;8239;48.594;8.598;2023-05-18T10:01:36;5.72;;;3.45;;
16262;SDS011;8239;48.594;8.598;2023-05-18T10:04:05;4.97;;;3.25;;
16262;SDS011;8239;48.594;8.598;2023-05-18T10:06:32;4.63;;;3.25;;
16262;SDS011;8239;48.594;8.598;2023-05-18T10:09:00;6.68;;;3.65;;
16262;SDS011;8239;48.594;8.598;2023-05-18T10:11:30;6.28;;;3.95;;
16262;SDS011;8239;48.594;8.598;2023-05-18T10:13:58;5.90;;;4.00;;
16262;SDS011;8239;48.594;8.598;2023-05-18T10:16:26;5.40;;;3.60;;
16262;SDS011;8239;48.594;8.598;2023-05-18T10:18:54;5.38;;;3.53;;
16262;SDS011;8239;48.594;8.598;2023-05-18T10:21:22;6.90;;;4.00;;
16262;SDS011;8239;48.594;8.598;2023-05-18T10:23:53;7.35;;;3.50;;
16262;SDS011;8239;48.594;8.598;2023-05-18T10:26:21;6.20;;;3.80;;
16262;SDS011;8239;48.594;8.598;2023-05-18T10:28:51;6.13;;;3.70;;
16262;SDS011;8239;48.594;8.598;2023-05-18T10:31:20;4.57;;;3.03;;
16262;SDS011;8239;48.594;8.598;2023-05-18T10:33:51;5.03;;;3.22;;
16262;SDS011;8239;48.594;8.598;2023-05-18T10:36:20;5.00;;;3.50;;
16262;SDS011;8239;48.594;8.598;2023-05-18T10:38:50;5.40;;;3.80;;
16262;SDS011;8239;48.594;8.598;2023-05-18T10:41:17;5.20;;;3.63;;
16262;SDS011;8239;48.594;8.598;2023-05-18T10:43:47;5.35;;;3.28;;
16262;SDS011;8239;48.594;8.598;2023-05-18T10:46:15;5.85;;;3.60;;
16262;SDS011;8239;48.594;8.598;2023-05-18T10:48:44;5.20;;;3.42;;
16262;SDS011;8239;48.594;8.598;2023-05-18T10:51:14;5.78;;;3.10;;
16262;SDS011;8239;48.594;8.598;2023-05-18T10:53:43;5.18;;;3.13;;
16262;SDS011;8239;48.594;8.598;2023-05-18T10:56:11;5.45;;;3.20;;
16262;SDS011;8239;48.594;8.598;2023-05-18T10:58:40;5.72;;;3.10;;
16262;SDS011;8239;48.594;8.598;2023-05-18T11:01:09;3.95;;;2.90;;
16262;SDS011;8239;48.594;8.598;2023-05-18T11:03:38;5.60;;;3.33;;
16262;SDS011;8239;48.594;8.598;2023-05-18T11:06:06;4.40;;;3.20;;
16262;SDS011;8239;48.594;8.598;2023-05-18T11:08:42;8.23;;;3.45;;
16262;SDS011;8239;48.594;8.598;2023-05-18T11:11:11;4.93;;;3.00;;
16262;SDS011;8239;48.594;8.598;2023-05-18T11:13:42;4.53;;;3.00;;
16262;SDS011;8239;48.594;8.598;2023-05-18T11:16:11;4.50;;;2.75;;
16262;SDS011;8239;48.594;8.598;2023-05-18T11:18:39;3.65;;;2.80;;
16262;SDS011;8239;48.594;8.598;2023-05-18T11:21:17;5.72;;;3.05;;
16262;SDS011;8239;48.594;8.598;2023-05-18T11:24:19;6.25;;;3.00;;
16262;SDS011;8239;48.594;8.598;2023-05-18T11:26:50;4.50;;;2.90;;
16262;SDS011;8239;48.594;8.598;2023-05-18T11:29:19;5.00;;;2.88;;
16262;SDS011;8239;48.594;8.598;2023-05-18T11:31:48;4.95;;;2.95;;
16262;SDS011;8239;48.594;8.598;2023-05-18T11:34:36;4.43;;;2.67;;
16262;SDS011;8239;48.594;8.598;2023-05-18T11:37:10;4.93;;;2.88;;
16262;SDS011;8239;48.594;8.598;2023-05-18T11:39:40;7.05;;;2.65;;
16262;SDS011;8239;48.594;8.598;2023-05-18T11:42:08;5.13;;;2.88;;
16262;SDS011;8239;48.594;8.598;2023-05-18T11:44:36;7.78;;;3.10;;
16262;SDS011;8239;48.594;8.598;2023-05-18T11:47:07;7.43;;;3.47;;
16262;SDS011;8239;48.594;8.598;2023-05-18T11:49:35;5.25;;;3.13;;
16262;SDS011;8239;48.594;8.598;2023-05-18T11:52:08;6.00;;;3.22;;
16262;SDS011;8239;48.594;8.598;2023-05-18T11:54:45;6.88;;;3.08;;
16262;SDS011;8239;48.594;8.598;2023-05-18T11:57:16;3.30;;;2.60;;
16262;SDS011;8239;48.594;8.598;2023-05-18T11:59:45;5.22;;;2.72;;
16262;SDS011;8239;48.594;8.598;2023-05-18T12:02:17;4.78;;;2.92;;
16262;SDS011;8239;48.594;8.598;2023-05-18T12:04:46;4.05;;;2.63;;
16262;SDS011;8239;48.594;8.598;2023-05-18T12:07:15;4.97;;;3.17;;
16262;SDS011;8239;48.594;8.598;2023-05-18T12:09:45;5.15;;;2.72;;
16262;SDS011;8239;48.594;8.598;2023-05-18T12:12:13;5.10;;;2.60;;
16262;SDS011;8239;48.594;8.598;2023-05-18T12:14:45;5.78;;;3.05;;
16262;SDS011;8239;48.594;8.598;2023-05-18T12:17:19;6.30;;;3.08;;
16262;SDS011;8239;48.594;8.598;2023-05-18T12:20:06;5.10;;;2.95;;
16262;SDS011;8239;48.594;8.598;2023-05-18T12:22:36;5.38;;;2.88;;
16262;SDS011;8239;48.594;8.598;2023-05-18T12:25:06;7.05;;;3.42;;
16262;SDS011;8239;48.594;8.598;2023-05-18T12:27:36;6.57;;;2.80;;
16262;SDS011;8239;48.594;8.598;2023-05-18T12:30:04;5.65;;;2.95;;
16262;SDS011;8239;48.594;8.598;2023-05-18T12:32:32;5.53;;;2.60;;
16262;SDS011;8239;48.594;8.598;2023-05-18T12:35:00;6.05;;;2.88;;
16262;SDS011;8239;48.594;8.598;2023-05-18T12:37:27;4.63;;;2.65;;
16262;SDS011;8239;48.594;8.598;2023-05-18T12:39:54;4.57;;;2.88;;
16262;SDS011;8239;48.594;8.598;2023-05-18T12:42:23;4.38;;;3.00;;
16262;SDS011;8239;48.594;8.598;2023-05-18T12:44:50;5.07;;;3.05;;
16262;SDS011;8239;48.594;8.598;2023-05-18T12:47:17;6.65;;;2.80;;
16262;SDS011;8239;48.594;8.598;2023-05-18T12:49:47;4.38;;;3.00;;
16262;SDS011;8239;48.594;8.598;2023-05-18T12:52:14;5.80;;;2.80;;
16262;SDS011;8239;48.594;8.598;2023-05-18T12:54:49;6.82;;;2.75;;
16262;SDS011;8239;48.594;8.598;2023-05-18T12:57:19;3.72;;;2.80;;
16262;SDS011;8239;48.594;8.598;2023-05-18T12:59:51;5.22;;;2.83;;
16262;SDS011;8239;48.594;8.598;2023-05-18T13:02:31;4.47;;;2.80;;
16262;SDS011;8239;48.594;8.598;2023-05-18T13:05:03;6.22;;;3.00;;
16262;SDS011;8239;48.594;8.598;2023-05-18T13:07:31;3.30;;;2.63;;
16262;SDS011;8239;48.594;8.598;2023-05-18T13:10:00;5.57;;;2.88;;
16262;SDS011;8239;48.594;8.598;2023-05-18T13:12:42;5.30;;;3.05;;
16262;SDS011;8239;48.594;8.598;2023-05-18T13:15:13;4.40;;;2.75;;
16262;SDS011;8239;48.594;8.598;2023-05-18T13:17:47;5.60;;;2.67;;
16262;SDS011;8239;48.594;8.598;2023-05-18T13:20:21;5.60;;;3.00;;
16262;SDS011;8239;48.594;8.598;2023-05-18T13:22:48;5.88;;;3.08;;
16262;SDS011;8239;48.594;8.598;2023-05-18T13:25:16;7.10;;;2.97;;
16262;SDS011;8239;48.594;8.598;2023-05-18T13:27:43;4.75;;;2.90;;
16262;SDS011;8239;48.594;8.598;2023-05-18T13:30:14;4.93;;;2.80;;
16262;SDS011;8239;48.594;8.598;2023-05-18T13:32:41;4.68;;;2.33;;
16262;SDS011;8239;48.594;8.598;2023-05-18T13:35:08;5.38;;;2.70;;
16262;SDS011;8239;48.594;8.598;2023-05-18T13:37:36;5.43;;;2.83;;
16262;SDS011;8239;48.594;8.598;2023-05-18T13:40:03;4.30;;;2.70;;
16262;SDS011;8239;48.594;8.598;2023-05-18T13:42:31;4.93;;;2.50;;
16262;SDS011;8239;48.594;8.598;2023-05-18T13:44:58;7.03;;;2.58;;
16262;SDS011;8239;48.594;8.598;2023-05-18T13:47:27;5.30;;;2.47;;
16262;SDS011;8239;48.594;8.598;2023-05-18T13:49:54;3.80;;;2.70;;
16262;SDS011;8239;48.594;8.598;2023-05-18T13:52:21;4.53;;;2.45;;
16262;SDS011;8239;48.594;8.598;2023-05-18T13:54:48;5.47;;;2.63;;
16262;SDS011;8239;48.594;8.598;2023-05-18T13:57:15;4.00;;;2.67;;
16262;SDS011;8239;48.594;8.598;2023-05-18T13:59:42;5.43;;;2.65;;
16262;SDS011;8239;48.594;8.598;2023-05-18T14:02:10;5.35;;;2.65;;
16262;SDS011;8239;48.594;8.598;2023-05-18T14:04:38;4.50;;;2.47;;
16262;SDS011;8239;48.594;8.598;2023-05-18T14:07:05;4.20;;;2.47;;
16262;SDS011;8239;48.594;8.598;2023-05-18T14:09:35;6.60;;;2.63;;
16262;SDS011;8239;48.594;8.598;2023-05-18T14:12:02;4.78;;;2.47;;
16262;SDS011;8239;48.594;8.598;2023-05-18T14:14:30;5.20;;;2.75;;
16262;SDS011;8239;48.594;8.598;2023-05-18T14:16:57;4.82;;;2.60;;
16262;SDS011;8239;48.594;8.598;2023-05-18T14:19:24;6.38;;;2.78;;
16262;SDS011;8239;48.594;8.598;2023-05-18T14:21:52;4.82;;;2.50;;
16262;SDS011;8239;48.594;8.598;2023-05-18T14:24:19;3.58;;;2.50;;
16262;SDS011;8239;48.594;8.598;2023-05-18T14:26:46;5.18;;;2.50;;
16262;SDS011;8239;48.594;8.598;2023-05-18T14:29:15;4.70;;;2.42;;
16262;SDS011;8239;48.594;8.598;2023-05-18T14:31:45;3.92;;;2.50;;
16262;SDS011;8239;48.594;8.598;2023-05-18T14:34:12;3.67;;;2.10;;
16262;SDS011;8239;48.594;8.598;2023-05-18T14:36:39;5.13;;;2.50;;
16262;SDS011;8239;48.594;8.598;2023-05-18T14:39:08;6.30;;;2.45;;
16262;SDS011;8239;48.594;8.598;2023-05-18T14:41:35;5.50;;;2.50;;
16262;SDS011;8239;48.594;8.598;2023-05-18T14:44:02;4.10;;;2.30;;
16262;SDS011;8239;48.594;8.598;2023-05-18T14:46:32;5.18;;;2.55;;
16262;SDS011;8239;48.594;8.598;2023-05-18T14:48:59;5.70;;;2.47;;
16262;SDS011;8239;48.594;8.598;2023-05-18T14:51:26;4.25;;;2.25;;
16262;SDS011;8239;48.594;8.598;2023-05-18T14:53:54;6.05;;;2.38;;
16262;SDS011;8239;48.594;8.598;2023-05-18T14:56:22;5.45;;;2.40;;
16262;SDS011;8239;48.594;8.598;2023-05-18T14:58:49;6.80;;;2.60;;
16262;SDS011;8239;48.594;8.598;2023-05-18T15:01:16;7.95;;;2.60;;
16262;SDS011;8239;48.594;8.598;2023-05-18T15:03:43;4.60;;;2.35;;
16262;SDS011;8239;48.594;8.598;2023-05-18T15:06:10;6.15;;;2.50;;
16262;SDS011;8239;48.594;8.598;2023-05-18T15:08:37;6.68;;;2.60;;